EWG7H LATI-EDDL
Flight info
| Callsign | EWG7H |
|---|---|
| Flight time | 2h 10m |
| Altitude | 38000 |
| Route | INLOT DCT RETRA DCT PODET DCT SIMBA DCT KEMES DCT TESDU DCT AMETU T852 TINSA T854 DOMUX DOMUX1A |
| Aircraft | A320/M-SDE2E3FGIJ1RWXY/HB1 |
Departure
| Time | 2026-05-06 16:12 |
|---|---|
| Airport | Tirana International Airport Mother Teresa (LATI) |
Arrival
| Time | 2026-05-06 18:22 |
|---|---|
| Airport | Düsseldorf Airport (EDDL) |
| Time | Latitude | Longitude | Altitude | Speed | Heading |
|---|---|---|---|---|---|
| 2026-05-06 15:30 | 41.41910 | 19.71519 | 124 ft | 0 kts | 264° |
| 2026-05-06 16:03 | 41.41911 | 19.71535 | 119 ft | 4 kts | 259° |
| 2026-05-06 16:03 | 41.41920 | 19.71568 | 119 ft | 4 kts | 227° |
| 2026-05-06 16:03 | 41.41938 | 19.71582 | 118 ft | 1 kts | 174° |
| 2026-05-06 16:03 | 41.41939 | 19.71582 | 118 ft | 0 kts | 174° |
| 2026-05-06 16:07 | 41.41935 | 19.71582 | 123 ft | 4 kts | 174° |
| 2026-05-06 16:08 | 41.41855 | 19.71593 | 119 ft | 20 kts | 174° |
| 2026-05-06 16:08 | 41.41688 | 19.71616 | 125 ft | 25 kts | 174° |
| 2026-05-06 16:08 | 41.41508 | 19.71640 | 126 ft | 26 kts | 174° |
| 2026-05-06 16:08 | 41.41335 | 19.71662 | 128 ft | 22 kts | 175° |
| 2026-05-06 16:09 | 41.41187 | 19.71683 | 127 ft | 21 kts | 174° |
| 2026-05-06 16:09 | 41.41045 | 19.71702 | 129 ft | 20 kts | 174° |
| 2026-05-06 16:09 | 41.40918 | 19.71722 | 130 ft | 17 kts | 171° |
| 2026-05-06 16:09 | 41.40800 | 19.71753 | 132 ft | 18 kts | 169° |
| 2026-05-06 16:10 | 41.40667 | 19.71775 | 132 ft | 19 kts | 175° |
| 2026-05-06 16:10 | 41.40544 | 19.71789 | 132 ft | 17 kts | 175° |
| 2026-05-06 16:10 | 41.40419 | 19.71806 | 132 ft | 21 kts | 168° |
| 2026-05-06 16:10 | 41.40292 | 19.71918 | 133 ft | 23 kts | 143° |
| 2026-05-06 16:11 | 41.40243 | 19.72096 | 133 ft | 21 kts | 84° |
| 2026-05-06 16:11 | 41.40264 | 19.72214 | 132 ft | 8 kts | 32° |
| 2026-05-06 16:11 | 41.40283 | 19.72215 | 132 ft | 3 kts | 354° |
| 2026-05-06 16:11 | 41.40477 | 19.72188 | 132 ft | 65 kts | 354° |
| 2026-05-06 16:12 | 41.41155 | 19.72098 | 129 ft | 129 kts | 354° |
| 2026-05-06 16:12 | 41.42214 | 19.71961 | 255 ft | 166 kts | 355° |
| 2026-05-06 16:12 | 41.43372 | 19.71829 | 899 ft | 171 kts | 355° |
| 2026-05-06 16:12 | 41.44585 | 19.71705 | 1520 ft | 182 kts | 355° |
| 2026-05-06 16:13 | 41.45927 | 19.71574 | 1890 ft | 204 kts | 355° |
| 2026-05-06 16:13 | 41.47444 | 19.71428 | 2229 ft | 231 kts | 356° |
| 2026-05-06 16:13 | 41.49138 | 19.71239 | 2633 ft | 258 kts | 355° |
| 2026-05-06 16:13 | 41.50987 | 19.71037 | 3383 ft | 271 kts | 355° |
| 2026-05-06 16:14 | 41.52862 | 19.70836 | 4282 ft | 275 kts | 355° |
| 2026-05-06 16:14 | 41.54783 | 19.70608 | 5232 ft | 278 kts | 350° |
| 2026-05-06 16:14 | 41.56671 | 19.69934 | 6198 ft | 279 kts | 338° |
| 2026-05-06 16:14 | 41.58441 | 19.68933 | 7145 ft | 280 kts | 333° |
| 2026-05-06 16:15 | 41.60206 | 19.67794 | 8060 ft | 282 kts | 331° |
| 2026-05-06 16:15 | 41.61986 | 19.66623 | 8952 ft | 285 kts | 332° |
| 2026-05-06 16:15 | 41.63765 | 19.65479 | 9835 ft | 288 kts | 332° |
| 2026-05-06 16:15 | 41.65626 | 19.64317 | 10404 ft | 303 kts | 333° |
| 2026-05-06 16:16 | 41.67627 | 19.63101 | 10706 ft | 326 kts | 334° |
| 2026-05-06 16:16 | 41.69741 | 19.61848 | 11300 ft | 336 kts | 334° |
| 2026-05-06 16:16 | 41.71876 | 19.60601 | 12041 ft | 341 kts | 334° |
| 2026-05-06 16:16 | 41.74072 | 19.59327 | 12786 ft | 345 kts | 335° |
| 2026-05-06 16:17 | 41.76299 | 19.58037 | 13528 ft | 350 kts | 335° |
| 2026-05-06 16:17 | 41.78539 | 19.56732 | 14214 ft | 354 kts | 335° |
| 2026-05-06 16:17 | 41.80816 | 19.55401 | 14885 ft | 357 kts | 334° |
| 2026-05-06 16:17 | 41.83072 | 19.54077 | 15546 ft | 360 kts | 334° |
| 2026-05-06 16:18 | 41.85384 | 19.52718 | 16240 ft | 363 kts | 334° |
| 2026-05-06 16:18 | 41.87702 | 19.51356 | 16909 ft | 366 kts | 334° |
| 2026-05-06 16:18 | 41.90047 | 19.49976 | 17574 ft | 369 kts | 333° |
| 2026-05-06 16:18 | 41.92410 | 19.48584 | 18240 ft | 372 kts | 333° |
| 2026-05-06 16:19 | 41.94790 | 19.47178 | 18828 ft | 375 kts | 333° |
| 2026-05-06 16:19 | 41.97190 | 19.45761 | 19402 ft | 377 kts | 333° |
| 2026-05-06 16:19 | 41.99594 | 19.44412 | 19969 ft | 381 kts | 335° |
| 2026-05-06 16:19 | 42.02085 | 19.43169 | 20557 ft | 384 kts | 337° |
| 2026-05-06 16:20 | 42.04634 | 19.41988 | 21154 ft | 386 kts | 338° |
| 2026-05-06 16:20 | 42.07192 | 19.40836 | 21742 ft | 389 kts | 338° |
| 2026-05-06 16:20 | 42.09776 | 19.39669 | 22313 ft | 392 kts | 338° |
| 2026-05-06 16:20 | 42.12368 | 19.38476 | 22873 ft | 394 kts | 337° |
| 2026-05-06 16:21 | 42.14939 | 19.37270 | 23437 ft | 396 kts | 337° |
| 2026-05-06 16:21 | 42.17563 | 19.36025 | 23919 ft | 399 kts | 336° |
| 2026-05-06 16:21 | 42.20162 | 19.34782 | 24361 ft | 401 kts | 336° |
| 2026-05-06 16:21 | 42.22754 | 19.33394 | 24796 ft | 400 kts | 330° |
| 2026-05-06 16:22 | 42.25160 | 19.31497 | 25216 ft | 399 kts | 323° |
| 2026-05-06 16:22 | 42.27506 | 19.29447 | 25635 ft | 401 kts | 323° |
| 2026-05-06 16:22 | 42.29827 | 19.27421 | 26037 ft | 403 kts | 323° |
| 2026-05-06 16:22 | 42.32193 | 19.25358 | 26443 ft | 405 kts | 324° |
| 2026-05-06 16:23 | 42.34574 | 19.23285 | 26834 ft | 407 kts | 324° |
| 2026-05-06 16:23 | 42.36970 | 19.21199 | 27227 ft | 409 kts | 324° |
| 2026-05-06 16:23 | 42.39375 | 19.19106 | 27607 ft | 411 kts | 324° |
| 2026-05-06 16:23 | 42.41792 | 19.16997 | 27970 ft | 414 kts | 323° |
| 2026-05-06 16:24 | 42.44201 | 19.14890 | 28328 ft | 416 kts | 323° |
| 2026-05-06 16:24 | 42.46641 | 19.12754 | 28683 ft | 418 kts | 323° |
| 2026-05-06 16:24 | 42.49092 | 19.10607 | 29019 ft | 420 kts | 323° |
| 2026-05-06 16:24 | 42.51530 | 19.08470 | 29370 ft | 422 kts | 323° |
| 2026-05-06 16:25 | 42.54004 | 19.06301 | 29672 ft | 424 kts | 323° |
| 2026-05-06 16:25 | 42.56499 | 19.04111 | 29977 ft | 426 kts | 323° |
| 2026-05-06 16:25 | 42.58989 | 19.01921 | 30269 ft | 428 kts | 323° |
| 2026-05-06 16:25 | 42.61471 | 18.99738 | 30536 ft | 429 kts | 323° |
| 2026-05-06 16:26 | 42.63982 | 18.97530 | 30798 ft | 431 kts | 323° |
| 2026-05-06 16:26 | 42.66509 | 18.95304 | 31040 ft | 433 kts | 323° |
| 2026-05-06 16:26 | 42.69049 | 18.93063 | 31287 ft | 434 kts | 323° |
| 2026-05-06 16:26 | 42.71579 | 18.90826 | 31588 ft | 434 kts | 323° |
| 2026-05-06 16:27 | 42.74110 | 18.88586 | 31995 ft | 431 kts | 323° |
| 2026-05-06 16:27 | 42.76587 | 18.86392 | 32386 ft | 429 kts | 323° |
| 2026-05-06 16:27 | 42.79089 | 18.84177 | 32766 ft | 427 kts | 323° |
| 2026-05-06 16:27 | 42.81579 | 18.81973 | 33144 ft | 424 kts | 323° |
| 2026-05-06 16:28 | 42.84022 | 18.79808 | 33541 ft | 422 kts | 323° |
| 2026-05-06 16:28 | 42.86492 | 18.77616 | 33928 ft | 420 kts | 323° |
| 2026-05-06 16:28 | 42.88118 | 18.76170 | 34170 ft | 419 kts | 323° |
| 2026-05-06 16:28 | 42.91363 | 18.73280 | 34533 ft | 418 kts | 323° |
| 2026-05-06 16:29 | 42.93800 | 18.71109 | 34737 ft | 418 kts | 323° |
| 2026-05-06 16:29 | 42.95421 | 18.69664 | 34898 ft | 418 kts | 323° |
| 2026-05-06 16:29 | 42.98658 | 18.66774 | 35197 ft | 418 kts | 323° |
| 2026-05-06 16:29 | 43.00307 | 18.65298 | 35355 ft | 418 kts | 323° |
| 2026-05-06 16:30 | 43.02711 | 18.63144 | 35579 ft | 417 kts | 323° |
| 2026-05-06 16:30 | 43.04324 | 18.61701 | 35725 ft | 417 kts | 323° |
| 2026-05-06 16:30 | 43.07586 | 18.58783 | 35987 ft | 418 kts | 323° |
| 2026-05-06 16:30 | 43.10019 | 18.56602 | 36037 ft | 416 kts | 323° |
| 2026-05-06 16:31 | 43.14818 | 18.52289 | 36034 ft | 413 kts | 323° |
| 2026-05-06 16:31 | 43.19617 | 18.47971 | 36049 ft | 413 kts | 322° |
| 2026-05-06 16:32 | 43.24436 | 18.43625 | 36032 ft | 413 kts | 322° |
| 2026-05-06 16:32 | 43.29214 | 18.39302 | 36026 ft | 413 kts | 322° |
| 2026-05-06 16:33 | 43.34016 | 18.34958 | 36037 ft | 413 kts | 322° |
| 2026-05-06 16:34 | 43.41197 | 18.28453 | 36029 ft | 413 kts | 322° |
| 2026-05-06 16:34 | 43.46004 | 18.24083 | 36019 ft | 414 kts | 322° |
| 2026-05-06 16:35 | 43.50812 | 18.19695 | 36006 ft | 414 kts | 322° |
| 2026-05-06 16:35 | 43.55615 | 18.15301 | 35995 ft | 414 kts | 322° |
| 2026-05-06 16:36 | 43.60416 | 18.10911 | 35988 ft | 415 kts | 322° |
| 2026-05-06 16:36 | 43.65218 | 18.06524 | 35984 ft | 415 kts | 322° |
| 2026-05-06 16:37 | 43.70043 | 18.02095 | 35985 ft | 415 kts | 322° |
| 2026-05-06 16:37 | 43.74838 | 17.97679 | 35982 ft | 415 kts | 322° |
| 2026-05-06 16:38 | 43.79662 | 17.93238 | 35983 ft | 415 kts | 322° |
| 2026-05-06 16:38 | 43.84450 | 17.88814 | 35980 ft | 415 kts | 322° |
| 2026-05-06 16:39 | 43.89243 | 17.84367 | 35979 ft | 416 kts | 322° |
| 2026-05-06 16:39 | 43.94057 | 17.79904 | 35970 ft | 415 kts | 322° |
| 2026-05-06 16:40 | 43.98870 | 17.75428 | 35969 ft | 416 kts | 322° |
| 2026-05-06 16:40 | 44.03664 | 17.70968 | 35972 ft | 416 kts | 322° |
| 2026-05-06 16:41 | 44.08470 | 17.66499 | 35968 ft | 416 kts | 322° |
| 2026-05-06 16:41 | 44.13282 | 17.62000 | 35974 ft | 416 kts | 322° |
| 2026-05-06 16:42 | 44.18067 | 17.57521 | 35967 ft | 416 kts | 322° |
| 2026-05-06 16:42 | 44.22882 | 17.53005 | 35960 ft | 416 kts | 322° |
| 2026-05-06 16:43 | 44.27699 | 17.48471 | 35956 ft | 416 kts | 322° |
| 2026-05-06 16:43 | 44.32472 | 17.43964 | 35953 ft | 417 kts | 322° |
| 2026-05-06 16:44 | 44.37286 | 17.39420 | 35954 ft | 417 kts | 322° |
| 2026-05-06 16:44 | 44.42080 | 17.34890 | 35948 ft | 417 kts | 322° |
| 2026-05-06 16:45 | 44.46901 | 17.30324 | 35945 ft | 417 kts | 322° |
| 2026-05-06 16:45 | 44.51688 | 17.25778 | 35937 ft | 417 kts | 322° |
| 2026-05-06 16:46 | 44.56505 | 17.21193 | 35933 ft | 418 kts | 322° |
| 2026-05-06 16:46 | 44.61326 | 17.16593 | 35929 ft | 418 kts | 322° |
| 2026-05-06 16:47 | 44.66107 | 17.12028 | 35922 ft | 418 kts | 322° |
| 2026-05-06 16:47 | 44.70938 | 17.07403 | 35922 ft | 418 kts | 322° |
| 2026-05-06 16:48 | 44.75741 | 17.02783 | 35917 ft | 419 kts | 322° |
| 2026-05-06 16:48 | 44.80538 | 16.98168 | 35917 ft | 419 kts | 322° |
| 2026-05-06 16:49 | 44.85354 | 16.93522 | 35917 ft | 419 kts | 322° |
| 2026-05-06 16:49 | 44.90182 | 16.88865 | 35915 ft | 419 kts | 322° |
| 2026-05-06 16:50 | 44.94985 | 16.84226 | 35916 ft | 420 kts | 322° |
| 2026-05-06 16:50 | 44.99791 | 16.79571 | 35915 ft | 420 kts | 322° |
| 2026-05-06 16:51 | 45.04605 | 16.74897 | 35913 ft | 420 kts | 322° |
| 2026-05-06 16:51 | 45.09449 | 16.70181 | 35916 ft | 421 kts | 322° |
| 2026-05-06 16:52 | 45.14253 | 16.65497 | 35918 ft | 421 kts | 322° |
| 2026-05-06 16:52 | 45.19053 | 16.60792 | 35910 ft | 421 kts | 321° |
| 2026-05-06 16:53 | 45.23889 | 16.56043 | 35911 ft | 421 kts | 322° |
| 2026-05-06 16:53 | 45.28696 | 16.51324 | 35910 ft | 421 kts | 322° |
| 2026-05-06 16:54 | 45.33502 | 16.46599 | 35912 ft | 421 kts | 322° |
| 2026-05-06 16:54 | 45.38338 | 16.41835 | 35909 ft | 421 kts | 322° |
| 2026-05-06 16:55 | 45.43130 | 16.37106 | 35907 ft | 421 kts | 322° |
| 2026-05-06 16:55 | 45.47616 | 16.32663 | 35910 ft | 421 kts | 321° |
| 2026-05-06 16:56 | 45.52415 | 16.27904 | 35910 ft | 421 kts | 322° |
| 2026-05-06 16:56 | 45.57209 | 16.23137 | 35914 ft | 421 kts | 321° |
| 2026-05-06 16:57 | 45.62024 | 16.18334 | 35914 ft | 421 kts | 321° |
| 2026-05-06 16:57 | 45.66820 | 16.13542 | 35916 ft | 421 kts | 321° |
| 2026-05-06 16:58 | 45.71638 | 16.08723 | 35913 ft | 421 kts | 321° |
| 2026-05-06 16:58 | 45.76419 | 16.03930 | 35913 ft | 421 kts | 321° |
| 2026-05-06 16:59 | 45.81206 | 15.99117 | 35914 ft | 421 kts | 321° |
| 2026-05-06 16:59 | 45.86016 | 15.94280 | 35911 ft | 421 kts | 321° |
| 2026-05-06 17:00 | 45.90799 | 15.89460 | 35910 ft | 421 kts | 321° |
| 2026-05-06 17:00 | 45.95579 | 15.84627 | 35910 ft | 421 kts | 321° |
| 2026-05-06 17:01 | 46.00390 | 15.79744 | 35910 ft | 421 kts | 321° |
| 2026-05-06 17:01 | 46.05162 | 15.74900 | 35908 ft | 421 kts | 321° |
| 2026-05-06 17:02 | 46.09936 | 15.70039 | 35906 ft | 421 kts | 321° |
| 2026-05-06 17:02 | 46.14738 | 15.65127 | 35901 ft | 422 kts | 321° |
| 2026-05-06 17:03 | 46.19436 | 15.60121 | 35887 ft | 421 kts | 318° |
| 2026-05-06 17:03 | 46.23916 | 15.54731 | 35885 ft | 420 kts | 316° |
| 2026-05-06 17:04 | 46.28362 | 15.49189 | 35886 ft | 420 kts | 316° |
| 2026-05-06 17:04 | 46.32799 | 15.43731 | 35884 ft | 421 kts | 317° |
| 2026-05-06 17:05 | 46.37285 | 15.38295 | 35884 ft | 421 kts | 317° |
| 2026-05-06 17:05 | 46.41776 | 15.32864 | 35885 ft | 421 kts | 317° |
| 2026-05-06 17:06 | 46.46273 | 15.27391 | 35882 ft | 422 kts | 317° |
| 2026-05-06 17:06 | 46.50751 | 15.21914 | 35888 ft | 422 kts | 317° |
| 2026-05-06 17:07 | 46.55263 | 15.16391 | 35887 ft | 423 kts | 316° |
| 2026-05-06 17:07 | 46.59733 | 15.10909 | 35877 ft | 423 kts | 316° |
| 2026-05-06 17:08 | 46.64243 | 15.05360 | 35871 ft | 423 kts | 316° |
| 2026-05-06 17:08 | 46.68712 | 14.99842 | 35867 ft | 423 kts | 316° |
| 2026-05-06 17:09 | 46.73214 | 14.94271 | 35872 ft | 424 kts | 316° |
| 2026-05-06 17:09 | 46.77697 | 14.88724 | 35864 ft | 424 kts | 316° |
| 2026-05-06 17:10 | 46.82194 | 14.83154 | 35864 ft | 424 kts | 316° |
| 2026-05-06 17:10 | 46.86669 | 14.77591 | 35843 ft | 424 kts | 316° |
| 2026-05-06 17:11 | 46.91147 | 14.71992 | 35839 ft | 424 kts | 316° |
| 2026-05-06 17:11 | 46.95639 | 14.66371 | 35837 ft | 424 kts | 316° |
| 2026-05-06 17:12 | 47.00132 | 14.60752 | 35833 ft | 425 kts | 316° |
| 2026-05-06 17:12 | 47.04588 | 14.55161 | 35829 ft | 425 kts | 316° |
| 2026-05-06 17:13 | 47.09084 | 14.49510 | 35832 ft | 425 kts | 316° |
| 2026-05-06 17:13 | 47.13587 | 14.43832 | 35830 ft | 426 kts | 315° |
| 2026-05-06 17:14 | 47.18086 | 14.38135 | 35826 ft | 426 kts | 315° |
| 2026-05-06 17:14 | 47.22556 | 14.32459 | 35818 ft | 427 kts | 315° |
| 2026-05-06 17:15 | 47.26309 | 14.27698 | 35814 ft | 427 kts | 315° |
| 2026-05-06 17:15 | 47.31554 | 14.21029 | 35801 ft | 428 kts | 315° |
| 2026-05-06 17:16 | 47.35302 | 14.16249 | 35800 ft | 428 kts | 315° |
| 2026-05-06 17:16 | 47.39821 | 14.10473 | 35788 ft | 428 kts | 315° |
| 2026-05-06 17:17 | 47.44330 | 14.04686 | 35787 ft | 429 kts | 315° |
| 2026-05-06 17:17 | 47.48816 | 13.98921 | 35776 ft | 429 kts | 315° |
| 2026-05-06 17:18 | 47.53306 | 13.93136 | 35766 ft | 429 kts | 314° |
| 2026-05-06 17:18 | 47.57824 | 13.87311 | 35755 ft | 429 kts | 314° |
| 2026-05-06 17:19 | 47.62302 | 13.81515 | 35746 ft | 429 kts | 314° |
| 2026-05-06 17:19 | 47.66815 | 13.75665 | 35731 ft | 430 kts | 314° |
| 2026-05-06 17:20 | 47.71314 | 13.69836 | 35722 ft | 430 kts | 314° |
| 2026-05-06 17:20 | 47.75829 | 13.63960 | 35710 ft | 430 kts | 314° |
| 2026-05-06 17:21 | 47.80316 | 13.58084 | 35708 ft | 431 kts | 314° |
| 2026-05-06 17:21 | 47.84837 | 13.52160 | 35695 ft | 431 kts | 314° |
| 2026-05-06 17:22 | 47.89324 | 13.46280 | 35707 ft | 432 kts | 314° |
| 2026-05-06 17:22 | 47.93830 | 13.40370 | 35704 ft | 432 kts | 314° |
| 2026-05-06 17:23 | 47.98347 | 13.34403 | 35707 ft | 432 kts | 313° |
| 2026-05-06 17:23 | 48.02841 | 13.28448 | 35697 ft | 433 kts | 313° |
| 2026-05-06 17:24 | 48.07360 | 13.22466 | 35697 ft | 433 kts | 313° |
| 2026-05-06 17:24 | 48.11860 | 13.16483 | 35685 ft | 434 kts | 313° |
| 2026-05-06 17:25 | 48.16369 | 13.10473 | 35686 ft | 434 kts | 313° |
| 2026-05-06 17:25 | 48.20884 | 13.04465 | 35689 ft | 434 kts | 313° |
| 2026-05-06 17:26 | 48.25386 | 12.98470 | 35693 ft | 435 kts | 313° |
| 2026-05-06 17:26 | 48.27665 | 12.95474 | 35807 ft | 436 kts | 311° |
| 2026-05-06 17:26 | 48.29971 | 12.92459 | 35699 ft | 438 kts | 311° |
| 2026-05-06 17:27 | 48.34577 | 12.86424 | 35692 ft | 438 kts | 311° |
| 2026-05-06 17:27 | 48.39147 | 12.80400 | 35695 ft | 439 kts | 311° |
| 2026-05-06 17:28 | 48.43754 | 12.74316 | 35700 ft | 440 kts | 311° |
| 2026-05-06 17:28 | 48.48329 | 12.68258 | 35708 ft | 440 kts | 311° |
| 2026-05-06 17:29 | 48.52940 | 12.62120 | 35714 ft | 440 kts | 311° |
| 2026-05-06 17:29 | 48.57510 | 12.56034 | 35721 ft | 441 kts | 311° |
| 2026-05-06 17:30 | 48.62099 | 12.49918 | 35730 ft | 441 kts | 311° |
| 2026-05-06 17:30 | 48.66700 | 12.43755 | 35732 ft | 441 kts | 311° |
| 2026-05-06 17:31 | 48.71301 | 12.37580 | 35728 ft | 441 kts | 311° |
| 2026-05-06 17:31 | 48.75876 | 12.31441 | 35736 ft | 441 kts | 311° |
| 2026-05-06 17:32 | 48.80465 | 12.25243 | 35735 ft | 441 kts | 311° |
| 2026-05-06 17:32 | 48.85062 | 12.19023 | 35743 ft | 441 kts | 311° |
| 2026-05-06 17:33 | 48.89628 | 12.12840 | 35741 ft | 441 kts | 311° |
| 2026-05-06 17:33 | 48.94214 | 12.06614 | 35753 ft | 442 kts | 311° |
| 2026-05-06 17:34 | 48.98803 | 12.00366 | 35757 ft | 442 kts | 311° |
| 2026-05-06 17:34 | 49.03385 | 11.94093 | 35761 ft | 442 kts | 311° |
| 2026-05-06 17:35 | 49.07928 | 11.87859 | 35766 ft | 442 kts | 311° |
| 2026-05-06 17:35 | 49.12510 | 11.81574 | 35768 ft | 442 kts | 311° |
| 2026-05-06 17:36 | 49.19369 | 11.72118 | 35769 ft | 442 kts | 311° |
| 2026-05-06 17:36 | 49.23933 | 11.65817 | 35765 ft | 442 kts | 311° |
| 2026-05-06 17:37 | 49.28487 | 11.59513 | 35765 ft | 442 kts | 311° |
| 2026-05-06 17:37 | 49.33075 | 11.53142 | 35764 ft | 443 kts | 311° |
| 2026-05-06 17:38 | 49.37620 | 11.46816 | 35765 ft | 443 kts | 311° |
| 2026-05-06 17:38 | 49.42165 | 11.40449 | 35771 ft | 443 kts | 311° |
| 2026-05-06 17:39 | 49.46723 | 11.34066 | 35772 ft | 443 kts | 311° |
| 2026-05-06 17:39 | 49.51295 | 11.27666 | 35774 ft | 444 kts | 311° |
| 2026-05-06 17:40 | 49.55850 | 11.21280 | 35774 ft | 445 kts | 313° |
| 2026-05-06 17:40 | 49.60643 | 11.15152 | 35777 ft | 447 kts | 316° |
| 2026-05-06 17:41 | 49.65539 | 11.09264 | 35773 ft | 448 kts | 316° |
| 2026-05-06 17:41 | 49.70436 | 11.03285 | 35771 ft | 447 kts | 315° |
| 2026-05-06 17:42 | 49.75272 | 10.97240 | 35774 ft | 447 kts | 315° |
| 2026-05-06 17:42 | 49.80093 | 10.91147 | 35784 ft | 447 kts | 315° |
| 2026-05-06 17:43 | 49.84897 | 10.85079 | 35773 ft | 448 kts | 315° |
| 2026-05-06 17:43 | 49.89794 | 10.78904 | 35789 ft | 458 kts | 315° |
| 2026-05-06 17:44 | 49.94762 | 10.72622 | 35785 ft | 466 kts | 315° |
| 2026-05-06 17:44 | 49.99815 | 10.66213 | 35786 ft | 468 kts | 315° |
| 2026-05-06 17:45 | 50.04873 | 10.59793 | 35786 ft | 468 kts | 315° |
| 2026-05-06 17:45 | 50.09886 | 10.53400 | 35788 ft | 468 kts | 315° |
| 2026-05-06 17:46 | 50.14947 | 10.46923 | 35791 ft | 468 kts | 315° |
| 2026-05-06 17:46 | 50.19921 | 10.40406 | 35587 ft | 466 kts | 309° |
| 2026-05-06 17:47 | 50.21998 | 10.36655 | 35304 ft | 456 kts | 300° |
| 2026-05-06 17:47 | 50.23814 | 10.32587 | 35063 ft | 456 kts | 299° |
| 2026-05-06 17:47 | 50.25628 | 10.28512 | 34822 ft | 456 kts | 299° |
| 2026-05-06 17:47 | 50.27446 | 10.24448 | 34590 ft | 456 kts | 299° |
| 2026-05-06 17:48 | 50.29278 | 10.20356 | 34355 ft | 456 kts | 299° |
| 2026-05-06 17:48 | 50.30482 | 10.17666 | 34200 ft | 456 kts | 299° |
| 2026-05-06 17:48 | 50.32905 | 10.12246 | 33784 ft | 456 kts | 299° |
| 2026-05-06 17:48 | 50.34701 | 10.08212 | 33294 ft | 456 kts | 299° |
| 2026-05-06 17:49 | 50.36512 | 10.04133 | 32809 ft | 457 kts | 299° |
| 2026-05-06 17:49 | 50.38333 | 10.00026 | 32319 ft | 458 kts | 300° |
| 2026-05-06 17:49 | 50.40157 | 9.95910 | 31845 ft | 460 kts | 300° |
| 2026-05-06 17:49 | 50.41984 | 9.91781 | 31379 ft | 460 kts | 300° |
| 2026-05-06 17:50 | 50.43815 | 9.87627 | 30918 ft | 461 kts | 301° |
| 2026-05-06 17:50 | 50.45623 | 9.83522 | 30476 ft | 462 kts | 301° |
| 2026-05-06 17:50 | 50.47455 | 9.79361 | 30036 ft | 463 kts | 301° |
| 2026-05-06 17:50 | 50.49294 | 9.75181 | 29649 ft | 464 kts | 301° |
| 2026-05-06 17:51 | 50.51134 | 9.70978 | 29363 ft | 466 kts | 302° |
| 2026-05-06 17:51 | 50.52951 | 9.66821 | 29097 ft | 467 kts | 302° |
| 2026-05-06 17:51 | 50.54795 | 9.62601 | 28571 ft | 468 kts | 302° |
| 2026-05-06 17:51 | 50.56644 | 9.58364 | 28056 ft | 469 kts | 302° |
| 2026-05-06 17:52 | 50.58492 | 9.54119 | 27786 ft | 469 kts | 302° |
| 2026-05-06 17:52 | 50.60328 | 9.49892 | 27526 ft | 468 kts | 302° |
| 2026-05-06 17:52 | 50.62142 | 9.45715 | 27267 ft | 466 kts | 302° |
| 2026-05-06 17:52 | 50.63977 | 9.41485 | 27001 ft | 464 kts | 302° |
| 2026-05-06 17:53 | 50.65796 | 9.37296 | 26736 ft | 462 kts | 302° |
| 2026-05-06 17:53 | 50.67613 | 9.33105 | 26481 ft | 460 kts | 302° |
| 2026-05-06 17:53 | 50.69414 | 9.28941 | 26223 ft | 457 kts | 301° |
| 2026-05-06 17:53 | 50.71180 | 9.24845 | 25970 ft | 455 kts | 301° |
| 2026-05-06 17:54 | 50.72960 | 9.20695 | 25707 ft | 453 kts | 301° |
| 2026-05-06 17:54 | 50.74718 | 9.16580 | 25481 ft | 451 kts | 301° |
| 2026-05-06 17:54 | 50.76447 | 9.12530 | 25230 ft | 448 kts | 301° |
| 2026-05-06 17:54 | 50.78173 | 9.08501 | 24981 ft | 433 kts | 301° |
| 2026-05-06 17:55 | 50.79836 | 9.04627 | 24739 ft | 418 kts | 301° |
| 2026-05-06 17:55 | 50.80911 | 9.02123 | 24577 ft | 408 kts | 301° |
| 2026-05-06 17:55 | 50.82484 | 8.98444 | 24329 ft | 396 kts | 301° |
| 2026-05-06 17:55 | 50.84035 | 8.94891 | 24098 ft | 386 kts | 303° |
| 2026-05-06 17:56 | 50.85622 | 8.91559 | 23867 ft | 377 kts | 304° |
| 2026-05-06 17:56 | 50.87240 | 8.88350 | 23636 ft | 368 kts | 306° |
| 2026-05-06 17:56 | 50.88838 | 8.85252 | 23399 ft | 365 kts | 306° |
| 2026-05-06 17:56 | 50.90446 | 8.82137 | 23127 ft | 363 kts | 306° |
| 2026-05-06 17:57 | 50.92035 | 8.79031 | 22854 ft | 361 kts | 306° |
| 2026-05-06 17:57 | 50.93605 | 8.75923 | 22577 ft | 359 kts | 305° |
| 2026-05-06 17:57 | 50.95140 | 8.72855 | 22314 ft | 358 kts | 305° |
| 2026-05-06 17:57 | 50.96681 | 8.69762 | 22044 ft | 357 kts | 305° |
| 2026-05-06 17:58 | 50.98221 | 8.66653 | 21773 ft | 355 kts | 305° |
| 2026-05-06 17:58 | 50.99748 | 8.63566 | 21519 ft | 354 kts | 305° |
| 2026-05-06 17:58 | 51.01370 | 8.60680 | 21264 ft | 355 kts | 312° |
| 2026-05-06 17:58 | 51.03246 | 8.58103 | 21004 ft | 356 kts | 320° |
| 2026-05-06 17:59 | 51.05314 | 8.55883 | 20739 ft | 357 kts | 324° |
| 2026-05-06 17:59 | 51.07399 | 8.53740 | 20495 ft | 355 kts | 324° |
| 2026-05-06 17:59 | 51.09440 | 8.51627 | 20247 ft | 354 kts | 324° |
| 2026-05-06 17:59 | 51.11528 | 8.49457 | 19995 ft | 352 kts | 323° |
| 2026-05-06 18:00 | 51.13555 | 8.47345 | 19753 ft | 351 kts | 323° |
| 2026-05-06 18:00 | 51.15573 | 8.45240 | 19514 ft | 350 kts | 323° |
| 2026-05-06 18:00 | 51.17615 | 8.43107 | 19268 ft | 348 kts | 323° |
| 2026-05-06 18:00 | 51.19642 | 8.40991 | 19031 ft | 347 kts | 324° |
| 2026-05-06 18:01 | 51.21658 | 8.38883 | 18788 ft | 345 kts | 324° |
| 2026-05-06 18:01 | 51.23659 | 8.36784 | 18552 ft | 343 kts | 324° |
| 2026-05-06 18:01 | 51.25647 | 8.34696 | 18319 ft | 342 kts | 324° |
| 2026-05-06 18:01 | 51.27638 | 8.32609 | 18073 ft | 340 kts | 324° |
| 2026-05-06 18:02 | 51.29589 | 8.30560 | 17805 ft | 339 kts | 324° |
| 2026-05-06 18:02 | 51.31557 | 8.28489 | 17541 ft | 337 kts | 324° |
| 2026-05-06 18:02 | 51.33518 | 8.26430 | 17274 ft | 336 kts | 324° |
| 2026-05-06 18:02 | 51.35471 | 8.24383 | 17004 ft | 334 kts | 324° |
| 2026-05-06 18:03 | 51.37414 | 8.22338 | 16741 ft | 333 kts | 324° |
| 2026-05-06 18:03 | 51.39323 | 8.20328 | 16474 ft | 331 kts | 324° |
| 2026-05-06 18:03 | 51.41251 | 8.18295 | 16209 ft | 330 kts | 324° |
| 2026-05-06 18:03 | 51.43170 | 8.16271 | 15978 ft | 328 kts | 324° |
| 2026-05-06 18:04 | 51.45070 | 8.14270 | 15723 ft | 327 kts | 325° |
| 2026-05-06 18:04 | 51.46802 | 8.12219 | 15483 ft | 324 kts | 316° |
| 2026-05-06 18:04 | 51.48257 | 8.09547 | 15243 ft | 321 kts | 302° |
| 2026-05-06 18:04 | 51.49296 | 8.06380 | 14993 ft | 318 kts | 290° |
| 2026-05-06 18:05 | 51.49866 | 8.02960 | 14743 ft | 316 kts | 277° |
| 2026-05-06 18:05 | 51.49949 | 7.99445 | 14502 ft | 315 kts | 265° |
| 2026-05-06 18:05 | 51.49547 | 7.96034 | 14265 ft | 314 kts | 254° |
| 2026-05-06 18:05 | 51.48944 | 7.92659 | 14021 ft | 314 kts | 255° |
| 2026-05-06 18:06 | 51.48347 | 7.89288 | 13780 ft | 313 kts | 255° |
| 2026-05-06 18:06 | 51.47756 | 7.85920 | 13525 ft | 312 kts | 255° |
| 2026-05-06 18:06 | 51.47166 | 7.82567 | 13259 ft | 311 kts | 255° |
| 2026-05-06 18:06 | 51.46578 | 7.79266 | 12994 ft | 311 kts | 255° |
| 2026-05-06 18:07 | 51.45983 | 7.75937 | 12726 ft | 311 kts | 255° |
| 2026-05-06 18:07 | 51.45383 | 7.72593 | 12466 ft | 310 kts | 255° |
| 2026-05-06 18:07 | 51.44786 | 7.69257 | 12202 ft | 310 kts | 255° |
| 2026-05-06 18:07 | 51.44194 | 7.65960 | 11942 ft | 310 kts | 256° |
| 2026-05-06 18:08 | 51.43592 | 7.62628 | 11691 ft | 310 kts | 256° |
| 2026-05-06 18:08 | 51.42986 | 7.59290 | 11425 ft | 310 kts | 256° |
| 2026-05-06 18:08 | 51.42386 | 7.55984 | 11177 ft | 310 kts | 256° |
| 2026-05-06 18:08 | 51.41596 | 7.52747 | 10950 ft | 311 kts | 248° |
| 2026-05-06 18:09 | 51.40696 | 7.49591 | 10852 ft | 312 kts | 248° |
| 2026-05-06 18:09 | 51.39782 | 7.46461 | 10864 ft | 313 kts | 247° |
| 2026-05-06 18:09 | 51.38850 | 7.43302 | 10870 ft | 314 kts | 247° |
| 2026-05-06 18:09 | 51.37912 | 7.40136 | 10871 ft | 314 kts | 247° |
| 2026-05-06 18:10 | 51.36976 | 7.36970 | 10871 ft | 314 kts | 247° |
| 2026-05-06 18:10 | 51.36045 | 7.33802 | 10873 ft | 314 kts | 247° |
| 2026-05-06 18:10 | 51.35115 | 7.30635 | 10872 ft | 313 kts | 247° |
| 2026-05-06 18:10 | 51.34187 | 7.27480 | 10875 ft | 313 kts | 247° |
| 2026-05-06 18:11 | 51.33265 | 7.24352 | 10876 ft | 313 kts | 247° |
| 2026-05-06 18:11 | 51.32333 | 7.21189 | 10879 ft | 313 kts | 247° |
| 2026-05-06 18:11 | 51.31412 | 7.18069 | 10881 ft | 313 kts | 247° |
| 2026-05-06 18:11 | 51.30482 | 7.14916 | 10886 ft | 313 kts | 247° |
| 2026-05-06 18:12 | 51.29554 | 7.11772 | 10885 ft | 313 kts | 247° |
| 2026-05-06 18:12 | 51.28621 | 7.08613 | 10569 ft | 312 kts | 247° |
| 2026-05-06 18:12 | 51.27692 | 7.05481 | 10108 ft | 311 kts | 247° |
| 2026-05-06 18:12 | 51.26774 | 7.02396 | 9616 ft | 303 kts | 247° |
| 2026-05-06 18:13 | 51.25878 | 6.99394 | 9069 ft | 295 kts | 247° |
| 2026-05-06 18:13 | 51.25012 | 6.96495 | 8569 ft | 291 kts | 247° |
| 2026-05-06 18:13 | 51.24142 | 6.93574 | 8045 ft | 291 kts | 247° |
| 2026-05-06 18:13 | 51.23269 | 6.90650 | 7544 ft | 293 kts | 247° |
| 2026-05-06 18:14 | 51.22390 | 6.87703 | 7036 ft | 291 kts | 247° |
| 2026-05-06 18:14 | 51.21530 | 6.84838 | 6546 ft | 282 kts | 247° |
| 2026-05-06 18:14 | 51.20689 | 6.82038 | 6039 ft | 277 kts | 247° |
| 2026-05-06 18:14 | 51.19795 | 6.79379 | 5513 ft | 276 kts | 237° |
| 2026-05-06 18:15 | 51.18645 | 6.76926 | 5008 ft | 274 kts | 233° |
| 2026-05-06 18:15 | 51.17470 | 6.74548 | 4485 ft | 272 kts | 233° |
| 2026-05-06 18:15 | 51.16293 | 6.72169 | 4053 ft | 271 kts | 233° |
| 2026-05-06 18:15 | 51.15126 | 6.69813 | 3995 ft | 269 kts | 233° |
| 2026-05-06 18:16 | 51.13978 | 6.67491 | 4004 ft | 271 kts | 233° |
| 2026-05-06 18:16 | 51.12813 | 6.65133 | 4011 ft | 272 kts | 233° |
| 2026-05-06 18:16 | 51.11648 | 6.62766 | 4011 ft | 271 kts | 233° |
| 2026-05-06 18:16 | 51.10584 | 6.60292 | 3992 ft | 269 kts | 249° |
| 2026-05-06 18:17 | 51.10264 | 6.57425 | 4011 ft | 262 kts | 278° |
| 2026-05-06 18:17 | 51.10847 | 6.54735 | 4007 ft | 257 kts | 307° |
| 2026-05-06 18:17 | 51.12096 | 6.52744 | 4011 ft | 254 kts | 324° |
| 2026-05-06 18:17 | 51.13633 | 6.51394 | 4007 ft | 252 kts | 346° |
| 2026-05-06 18:18 | 51.15344 | 6.51336 | 3988 ft | 251 kts | 13° |
| 2026-05-06 18:18 | 51.16921 | 6.52493 | 3766 ft | 251 kts | 38° |
| 2026-05-06 18:18 | 51.18059 | 6.54503 | 3475 ft | 235 kts | 51° |
| 2026-05-06 18:18 | 51.19013 | 6.56509 | 3169 ft | 220 kts | 52° |
| 2026-05-06 18:19 | 51.19905 | 6.58374 | 2884 ft | 208 kts | 51° |
| 2026-05-06 18:19 | 51.20765 | 6.60168 | 2604 ft | 202 kts | 51° |
| 2026-05-06 18:19 | 51.21648 | 6.62006 | 2316 ft | 205 kts | 51° |
| 2026-05-06 18:19 | 51.22484 | 6.63752 | 2059 ft | 189 kts | 51° |
| 2026-05-06 18:20 | 51.23250 | 6.65351 | 1794 ft | 171 kts | 51° |
| 2026-05-06 18:20 | 51.23941 | 6.66793 | 1571 ft | 159 kts | 50° |
| 2026-05-06 18:20 | 51.24586 | 6.68140 | 1350 ft | 146 kts | 50° |
| 2026-05-06 18:20 | 51.25121 | 6.69259 | 1165 ft | 137 kts | 50° |
| 2026-05-06 18:21 | 51.25699 | 6.70466 | 972 ft | 136 kts | 50° |
| 2026-05-06 18:21 | 51.26267 | 6.71656 | 751 ft | 135 kts | 50° |
| 2026-05-06 18:21 | 51.26764 | 6.72694 | 562 ft | 134 kts | 50° |
| 2026-05-06 18:21 | 51.27335 | 6.73897 | 430 ft | 132 kts | 51° |
| 2026-05-06 18:22 | 51.27891 | 6.75067 | 239 ft | 132 kts | 50° |
| 2026-05-06 18:22 | 51.28430 | 6.76188 | 116 ft | 120 kts | 50° |
| 2026-05-06 18:22 | 51.28836 | 6.77027 | 115 ft | 72 kts | 53° |
| 2026-05-06 18:22 | 51.29018 | 6.77434 | 118 ft | 20 kts | 69° |
| 2026-05-06 18:23 | 51.29015 | 6.77549 | 118 ft | 0 kts | 115° |
| 2026-05-06 18:23 | 51.28996 | 6.77581 | 118 ft | 4 kts | 135° |
| 2026-05-06 18:23 | 51.28983 | 6.77598 | 114 ft | 1 kts | 142° |
| 2026-05-06 18:23 | 51.28982 | 6.77599 | 114 ft | 0 kts | 143° |
| 2026-05-06 18:24 | 51.28975 | 6.77607 | 117 ft | 0 kts | 145° |
| 2026-05-06 18:24 | 51.28950 | 6.77634 | 118 ft | 9 kts | 149° |
| 2026-05-06 18:24 | 51.28906 | 6.77623 | 115 ft | 5 kts | 213° |
| 2026-05-06 18:25 | 51.28884 | 6.77592 | 118 ft | 8 kts | 225° |
| 2026-05-06 18:25 | 51.28815 | 6.77455 | 118 ft | 21 kts | 232° |
| 2026-05-06 18:25 | 51.28731 | 6.77278 | 115 ft | 18 kts | 233° |
| 2026-05-06 18:25 | 51.28663 | 6.77138 | 116 ft | 14 kts | 232° |
| 2026-05-06 18:26 | 51.28603 | 6.77012 | 115 ft | 16 kts | 233° |
| 2026-05-06 18:26 | 51.28539 | 6.76878 | 114 ft | 13 kts | 232° |
| 2026-05-06 18:26 | 51.28492 | 6.76778 | 115 ft | 9 kts | 233° |
| 2026-05-06 18:26 | 51.28424 | 6.76634 | 117 ft | 24 kts | 232° |
| 2026-05-06 18:27 | 51.28321 | 6.76418 | 118 ft | 23 kts | 232° |
| 2026-05-06 18:27 | 51.28227 | 6.76222 | 116 ft | 21 kts | 232° |
| 2026-05-06 18:27 | 51.28151 | 6.76064 | 117 ft | 14 kts | 230° |
| 2026-05-06 18:27 | 51.28083 | 6.76037 | 115 ft | 8 kts | 167° |
| 2026-05-06 18:28 | 51.28053 | 6.76045 | 117 ft | 0 kts | 175° |
| 2026-05-06 18:28 | 51.28041 | 6.76046 | 118 ft | 3 kts | 176° |
| 2026-05-06 18:28 | 51.28034 | 6.76047 | 118 ft | 0 kts | 177° |
| 2026-05-06 18:28 | 51.28008 | 6.76048 | 114 ft | 9 kts | 179° |
| 2026-05-06 18:29 | 51.27924 | 6.76047 | 118 ft | 12 kts | 180° |
| 2026-05-06 18:29 | 51.27853 | 6.76045 | 118 ft | 12 kts | 181° |
| 2026-05-06 18:29 | 51.27748 | 6.76040 | 118 ft | 13 kts | 181° |
| 2026-05-06 18:29 | 51.27673 | 6.76038 | 116 ft | 9 kts | 180° |
| 2026-05-06 18:30 | 51.27645 | 6.76069 | 115 ft | 2 kts | 94° |
| 2026-05-06 18:30 | 51.27649 | 6.76117 | 118 ft | 4 kts | 79° |
| 2026-05-06 18:30 | 51.27653 | 6.76145 | 118 ft | 3 kts | 78° |
| 2026-05-06 18:30 | 51.27655 | 6.76158 | 118 ft | 1 kts | 78° |
| 2026-05-06 18:31 | 51.27655 | 6.76160 | 118 ft | 0 kts | 78° |